Pagrindinis puslapis
METAR-TAF:

METAR-TAF

Oro uostai :

Langkavis, Malaizija

platuma: 06-20N, ilguma: 099-44E, Aukštis: 8 m

Dabartinis oras

Ataskaita buvo paskelbta 47 minutes, ne 01:00 UTC
Ramus vėjas
Temperatūra 26°C
Drėgmė 84%
Slėgis 1009 hPa
Matomumas 10 km arba daugiau
Mažai debesys ne aukštis 2000 ft

METAR: WMKL 260100Z 00000KT 9999 FEW020 26/23 Q1009

Laikas: 09:47 (01:47 UTC)

Prognozė

Ataskaita buvo paskelbta 2 valandos ir 47 minutes, ne 23:00 UTC
Prognozė galioja nuo 26 metu 00 UTC su 27 metu 00 UTC
Vėjas 3 kt nuo kintamojo kryptimis
Matomumas 10 km arba daugiau
Mažai debesys ne aukštis 2200 ft
Tapsmas
nuo 26 metu 05 UTC su 26 metu 07 UTC
Vėjas 6 kt iš Vakarų/Šiaurės Vakarų
Tapsmas
nuo 26 metu 10 UTC su 26 metu 12 UTC
Vėjas 3 kt nuo kintamojo kryptimis
Matomumas: 8000 m
Mažai debesys ne aukštis 2500 ft

TAF: WMKL 252300Z 2600/2700 VRB03KT 9999 FEW022 BECMG 2605/2607 30006KT BECMG 2610/2612 VRB03KT 8000 FEW025

Orai ataskaitas ir orų prognozės (METAR, TAF).

turimą stotys yra geltonos ir raudonos taškus žemėlapyje.

Perkelti pele per norėdami pamatyti stoties vardą.

Tada spustelėkite, norėdami matyti oro stebėjimo ir prognozės.

Norėdami pakeisti žemėlapį: spustelėkite ant žalios mygtukų su juodo kryžiaus žemyn,; žalią mygtuką su brūkšneliu, jei norite nutolinti; arba žalių rodyklių gretimoms žemėlapius.


METAR-TAF: